To NAV CANADA Home Page Login to a new session Search on AWWS site Feedback and Comments Disclaimer Vers la page française équivalente Tips FAQ What's new on the site To the Forecasts and Observations / NOTAM section To "File a Flight Plan" website Publications and other links Update of the User's profile FIC Telephone Numbers My Weather Data Folder Route Weather Data Regional Weather Data Local Weather Data To the Forecasts and Observations / NOTAM section
Request Generated 08/28/2015 at 22:11:29 UTC . Weather information available at that time is displayed.

METAR/TAF

SASKATOON/JOHN G. DIEFENBAKER INTL/SK    

METAR CYXE 282200Z 21008KT 170V230 15SM BKN300 26/16 A2983 RMK CI6 FU
SLP103 DENSITY ALT 3400FT=
METAR CYXE 282100Z 15006KT 15SM BKN300 27/15 A2984 RMK CI7 SLP108
DENSITY ALT 3400FT=
METAR CYXE 282000Z 16007KT 120V190 15SM BKN280 26/14 A2985 RMK CI7
SLP113 DENSITY ALT 3300FT=

TAF CYXE 281738Z 2818/2918 18008KT P6SM FEW220
FM290200 18008KT P6SM SCT120
BECMG 2909/2911 22010KT
RMK NXT FCST BY 290000Z=
Your time UTC time
Weather data provided by Environment Canada and NAV CANADA